sensor_id;sensor_type;location;lat;lon;timestamp;pressure;altitude;pressure_sealevel;temperature;humidity
51999;BME280;38015;50.924;11.598;2023-04-04T00:01:33;100690.83;;;22.22;22.99
51999;BME280;38015;50.924;11.598;2023-04-04T00:04:03;100687.73;;;22.26;22.94
51999;BME280;38015;50.924;11.598;2023-04-04T00:06:34;100687.78;;;22.24;22.93
51999;BME280;38015;50.924;11.598;2023-04-04T00:09:04;100686.66;;;22.24;22.92
51999;BME280;38015;50.924;11.598;2023-04-04T00:11:35;100682.55;;;22.29;22.85
51999;BME280;38015;50.924;11.598;2023-04-04T00:14:05;100680.92;;;22.18;23.03
51999;BME280;38015;50.924;11.598;2023-04-04T00:16:36;100679.21;;;22.21;23.02
51999;BME280;38015;50.924;11.598;2023-04-04T00:19:08;100680.55;;;22.25;22.95
51999;BME280;38015;50.924;11.598;2023-04-04T00:21:37;100678.09;;;22.13;23.13
51999;BME280;38015;50.924;11.598;2023-04-04T00:24:08;100677.09;;;22.18;23.04
51999;BME280;38015;50.924;11.598;2023-04-04T00:26:38;100675.64;;;22.25;22.96
51999;BME280;38015;50.924;11.598;2023-04-04T00:29:08;100672.84;;;22.23;22.93
51999;BME280;38015;50.924;11.598;2023-04-04T00:31:39;100674.71;;;22.24;22.97
51999;BME280;38015;50.924;11.598;2023-04-04T00:34:09;100671.18;;;22.25;22.96
51999;BME280;38015;50.924;11.598;2023-04-04T00:36:40;100668.63;;;22.20;23.02
51999;BME280;38015;50.924;11.598;2023-04-04T00:39:10;100669.02;;;22.20;23.02
51999;BME280;38015;50.924;11.598;2023-04-04T00:41:41;100668.31;;;22.18;23.07
51999;BME280;38015;50.924;11.598;2023-04-04T00:44:11;100667.56;;;22.25;22.95
51999;BME280;38015;50.924;11.598;2023-04-04T00:46:42;100665.20;;;22.20;23.01
51999;BME280;38015;50.924;11.598;2023-04-04T00:49:14;100662.78;;;22.21;23.04
51999;BME280;38015;50.924;11.598;2023-04-04T00:51:43;100659.79;;;22.19;23.03
51999;BME280;38015;50.924;11.598;2023-04-04T00:54:15;100658.37;;;22.25;22.97
51999;BME280;38015;50.924;11.598;2023-04-04T00:56:44;100657.03;;;22.14;23.10
51999;BME280;38015;50.924;11.598;2023-04-04T00:59:14;100657.12;;;22.22;23.01
51999;BME280;38015;50.924;11.598;2023-04-04T01:01:45;100653.99;;;22.20;23.07
51999;BME280;38015;50.924;11.598;2023-04-04T01:04:15;100650.78;;;22.17;23.06
51999;BME280;38015;50.924;11.598;2023-04-04T01:06:46;100650.95;;;22.17;23.09
51999;BME280;38015;50.924;11.598;2023-04-04T01:09:17;100650.25;;;22.18;23.07
51999;BME280;38015;50.924;11.598;2023-04-04T01:11:47;100653.68;;;22.17;23.08
51999;BME280;38015;50.924;11.598;2023-04-04T01:14:18;100651.75;;;22.26;22.97
51999;BME280;38015;50.924;11.598;2023-04-04T01:16:49;100648.54;;;22.25;23.00
51999;BME280;38015;50.924;11.598;2023-04-04T01:19:27;100649.27;;;22.19;23.04
51999;BME280;38015;50.924;11.598;2023-04-04T01:21:51;100648.14;;;22.16;23.10
51999;BME280;38015;50.924;11.598;2023-04-04T01:24:20;100646.64;;;22.11;23.18
51999;BME280;38015;50.924;11.598;2023-04-04T01:26:50;100645.59;;;22.24;22.99
51999;BME280;38015;50.924;11.598;2023-04-04T01:29:22;100645.33;;;22.19;23.08
51999;BME280;38015;50.924;11.598;2023-04-04T01:31:59;100647.75;;;22.21;23.07
51999;BME280;38015;50.924;11.598;2023-04-04T01:34:28;100644.22;;;22.16;23.11
51999;BME280;38015;50.924;11.598;2023-04-04T01:37:00;100643.58;;;22.21;23.02
51999;BME280;38015;50.924;11.598;2023-04-04T01:39:30;100640.91;;;22.18;23.11
51999;BME280;38015;50.924;11.598;2023-04-04T01:41:55;100640.33;;;22.24;22.99
51999;BME280;38015;50.924;11.598;2023-04-04T01:44:24;100639.91;;;22.17;23.08
51999;BME280;38015;50.924;11.598;2023-04-04T01:46:54;100637.34;;;22.28;22.95
51999;BME280;38015;50.924;11.598;2023-04-04T01:49:25;100640.19;;;22.17;23.10
51999;BME280;38015;50.924;11.598;2023-04-04T01:51:55;100639.10;;;22.14;23.15
51999;BME280;38015;50.924;11.598;2023-04-04T01:54:26;100639.12;;;22.19;23.10
51999;BME280;38015;50.924;11.598;2023-04-04T01:56:56;100642.87;;;22.16;23.14
51999;BME280;38015;50.924;11.598;2023-04-04T01:59:27;100641.13;;;22.12;23.18
51999;BME280;38015;50.924;11.598;2023-04-04T02:01:57;100638.54;;;22.15;23.16
51999;BME280;38015;50.924;11.598;2023-04-04T02:04:28;100637.64;;;22.18;23.14
51999;BME280;38015;50.924;11.598;2023-04-04T02:07:00;100637.32;;;22.19;23.10
51999;BME280;38015;50.924;11.598;2023-04-04T02:09:29;100638.90;;;22.12;23.21
51999;BME280;38015;50.924;11.598;2023-04-04T02:11:59;100638.69;;;22.14;23.18
51999;BME280;38015;50.924;11.598;2023-04-04T02:14:30;100637.23;;;22.16;23.13
51999;BME280;38015;50.924;11.598;2023-04-04T02:17:00;100633.02;;;22.26;22.97
51999;BME280;38015;50.924;11.598;2023-04-04T02:19:33;100627.32;;;22.18;23.10
51999;BME280;38015;50.924;11.598;2023-04-04T02:22:01;100625.37;;;22.19;23.11
51999;BME280;38015;50.924;11.598;2023-04-04T02:24:32;100624.22;;;22.16;23.20
51999;BME280;38015;50.924;11.598;2023-04-04T02:27:02;100624.29;;;22.22;23.11
51999;BME280;38015;50.924;11.598;2023-04-04T02:29:33;100623.01;;;22.18;23.12
51999;BME280;38015;50.924;11.598;2023-04-04T02:32:03;100624.01;;;22.19;23.11
51999;BME280;38015;50.924;11.598;2023-04-04T02:34:34;100625.56;;;22.10;23.24
51999;BME280;38015;50.924;11.598;2023-04-04T02:37:05;100620.96;;;22.19;23.12
51999;BME280;38015;50.924;11.598;2023-04-04T02:39:35;100617.57;;;22.18;23.12
51999;BME280;38015;50.924;11.598;2023-04-04T02:42:05;100613.13;;;22.11;23.23
51999;BME280;38015;50.924;11.598;2023-04-04T02:44:36;100613.77;;;22.14;23.19
51999;BME280;38015;50.924;11.598;2023-04-04T02:47:06;100610.93;;;22.14;23.18
51999;BME280;38015;50.924;11.598;2023-04-04T02:49:37;100608.56;;;22.16;23.15
51999;BME280;38015;50.924;11.598;2023-04-04T02:52:08;100606.43;;;22.08;23.28
51999;BME280;38015;50.924;11.598;2023-04-04T02:54:38;100604.81;;;22.15;23.19
51999;BME280;38015;50.924;11.598;2023-04-04T02:57:08;100600.63;;;22.17;23.15
51999;BME280;38015;50.924;11.598;2023-04-04T02:59:39;100597.72;;;22.14;23.20
51999;BME280;38015;50.924;11.598;2023-04-04T03:02:09;100597.77;;;22.12;23.25
51999;BME280;38015;50.924;11.598;2023-04-04T03:04:40;100590.99;;;22.13;23.19
51999;BME280;38015;50.924;11.598;2023-04-04T03:07:10;100588.88;;;22.13;23.24
51999;BME280;38015;50.924;11.598;2023-04-04T03:09:42;100588.78;;;22.16;23.18
51999;BME280;38015;50.924;11.598;2023-04-04T03:12:12;100589.41;;;22.17;23.16
51999;BME280;38015;50.924;11.598;2023-04-04T03:14:42;100587.45;;;22.14;23.21
51999;BME280;38015;50.924;11.598;2023-04-04T03:17:13;100583.77;;;22.09;23.27
51999;BME280;38015;50.924;11.598;2023-04-04T03:19:43;100585.09;;;22.10;23.27
51999;BME280;38015;50.924;11.598;2023-04-04T03:22:14;100581.90;;;22.14;23.18
51999;BME280;38015;50.924;11.598;2023-04-04T03:24:44;100584.29;;;22.07;23.33
51999;BME280;38015;50.924;11.598;2023-04-04T03:27:14;100585.88;;;22.12;23.25
51999;BME280;38015;50.924;11.598;2023-04-04T03:29:45;100584.99;;;22.08;23.30
51999;BME280;38015;50.924;11.598;2023-04-04T03:32:16;100582.51;;;22.17;23.16
51999;BME280;38015;50.924;11.598;2023-04-04T03:34:46;100579.56;;;22.17;23.15
51999;BME280;38015;50.924;11.598;2023-04-04T03:37:17;100578.73;;;22.21;23.11
51999;BME280;38015;50.924;11.598;2023-04-04T03:39:47;100576.50;;;22.15;23.18
51999;BME280;38015;50.924;11.598;2023-04-04T03:42:18;100576.96;;;22.08;23.31
51999;BME280;38015;50.924;11.598;2023-04-04T03:44:48;100576.21;;;22.13;23.23
51999;BME280;38015;50.924;11.598;2023-04-04T03:47:19;100571.25;;;22.12;23.23
51999;BME280;38015;50.924;11.598;2023-04-04T03:49:50;100570.46;;;22.23;23.08
51999;BME280;38015;50.924;11.598;2023-04-04T03:52:20;100567.07;;;22.13;23.21
51999;BME280;38015;50.924;11.598;2023-04-04T03:54:50;100566.03;;;22.14;23.20
51999;BME280;38015;50.924;11.598;2023-04-04T03:57:22;100569.81;;;22.21;23.09
51999;BME280;38015;50.924;11.598;2023-04-04T03:59:51;100565.22;;;22.11;23.24
51999;BME280;38015;50.924;11.598;2023-04-04T04:02:22;100564.92;;;22.14;23.22
51999;BME280;38015;50.924;11.598;2023-04-04T04:04:52;100568.31;;;22.17;23.17
51999;BME280;38015;50.924;11.598;2023-04-04T04:07:23;100566.43;;;22.20;23.12
51999;BME280;38015;50.924;11.598;2023-04-04T04:09:53;100565.47;;;22.16;23.21
51999;BME280;38015;50.924;11.598;2023-04-04T04:12:24;100565.16;;;22.14;23.18
51999;BME280;38015;50.924;11.598;2023-04-04T04:14:54;100567.66;;;22.15;23.19
51999;BME280;38015;50.924;11.598;2023-04-04T04:17:25;100567.68;;;22.18;23.13
51999;BME280;38015;50.924;11.598;2023-04-04T04:19:57;100567.85;;;22.09;23.30
51999;BME280;38015;50.924;11.598;2023-04-04T04:22:26;100567.51;;;22.19;23.15
51999;BME280;38015;50.924;11.598;2023-04-04T04:24:56;100566.77;;;22.19;23.15
51999;BME280;38015;50.924;11.598;2023-04-04T04:27:28;100566.39;;;22.14;23.24
51999;BME280;38015;50.924;11.598;2023-04-04T04:29:57;100565.09;;;22.13;23.23
51999;BME280;38015;50.924;11.598;2023-04-04T04:32:28;100568.24;;;22.17;23.13
51999;BME280;38015;50.924;11.598;2023-04-04T04:34:58;100570.21;;;22.18;23.15
51999;BME280;38015;50.924;11.598;2023-04-04T04:37:30;100570.29;;;22.18;23.13
51999;BME280;38015;50.924;11.598;2023-04-04T04:39:59;100569.76;;;22.17;23.16
51999;BME280;38015;50.924;11.598;2023-04-04T04:42:30;100568.82;;;22.16;23.19
51999;BME280;38015;50.924;11.598;2023-04-04T04:45:00;100567.45;;;22.14;23.24
51999;BME280;38015;50.924;11.598;2023-04-04T04:47:31;100566.31;;;22.16;23.20
51999;BME280;38015;50.924;11.598;2023-04-04T04:50:01;100567.07;;;22.15;23.20
51999;BME280;38015;50.924;11.598;2023-04-04T04:52:36;100567.99;;;22.18;23.18
51999;BME280;38015;50.924;11.598;2023-04-04T04:55:04;100571.90;;;22.18;23.19
51999;BME280;38015;50.924;11.598;2023-04-04T04:57:33;100570.72;;;22.10;23.27
51999;BME280;38015;50.924;11.598;2023-04-04T05:00:04;100569.95;;;22.15;23.24
51999;BME280;38015;50.924;11.598;2023-04-04T05:02:34;100570.41;;;22.11;23.27
51999;BME280;38015;50.924;11.598;2023-04-04T05:05:05;100573.80;;;22.24;23.11
51999;BME280;38015;50.924;11.598;2023-04-04T05:07:36;100573.00;;;22.19;23.19
51999;BME280;38015;50.924;11.598;2023-04-04T05:10:06;100569.67;;;22.12;23.26
51999;BME280;38015;50.924;11.598;2023-04-04T05:12:41;100569.32;;;22.13;23.22
51999;BME280;38015;50.924;11.598;2023-04-04T05:15:07;100570.77;;;22.12;23.26
51999;BME280;38015;50.924;11.598;2023-04-04T05:17:38;100571.98;;;22.14;23.23
51999;BME280;38015;50.924;11.598;2023-04-04T05:20:08;100576.12;;;22.11;23.25
51999;BME280;38015;50.924;11.598;2023-04-04T05:22:42;100579.58;;;22.10;23.34
51999;BME280;38015;50.924;11.598;2023-04-04T05:25:09;100585.17;;;22.24;23.08
51999;BME280;38015;50.924;11.598;2023-04-04T05:27:39;100585.18;;;22.17;23.17
51999;BME280;38015;50.924;11.598;2023-04-04T05:30:11;100590.19;;;22.07;23.36
51999;BME280;38015;50.924;11.598;2023-04-04T05:32:40;100592.94;;;22.11;23.35
51999;BME280;38015;50.924;11.598;2023-04-04T05:35:11;100594.94;;;22.09;23.34
51999;BME280;38015;50.924;11.598;2023-04-04T05:37:41;100597.32;;;22.14;23.24
51999;BME280;38015;50.924;11.598;2023-04-04T05:40:11;100596.20;;;22.10;23.28
51999;BME280;38015;50.924;11.598;2023-04-04T05:42:53;100600.27;;;22.20;23.13
51999;BME280;38015;50.924;11.598;2023-04-04T05:45:13;100597.97;;;22.25;23.06
51999;BME280;38015;50.924;11.598;2023-04-04T05:47:43;100601.87;;;22.23;23.11
51999;BME280;38015;50.924;11.598;2023-04-04T05:50:14;100604.04;;;22.21;23.14
51999;BME280;38015;50.924;11.598;2023-04-04T05:52:45;100604.75;;;22.14;23.24
51999;BME280;38015;50.924;11.598;2023-04-04T05:55:15;100605.22;;;22.21;23.13
51999;BME280;38015;50.924;11.598;2023-04-04T05:57:47;100603.58;;;22.21;23.13
51999;BME280;38015;50.924;11.598;2023-04-04T06:00:17;100604.10;;;22.25;23.12
51999;BME280;38015;50.924;11.598;2023-04-04T06:02:48;100605.43;;;22.24;23.12
51999;BME280;38015;50.924;11.598;2023-04-04T06:05:17;100605.58;;;22.25;23.14
51999;BME280;38015;50.924;11.598;2023-04-04T06:07:47;100606.09;;;22.25;23.15
51999;BME280;38015;50.924;11.598;2023-04-04T06:10:18;100608.63;;;22.30;23.12
51999;BME280;38015;50.924;11.598;2023-04-04T06:12:48;100610.13;;;22.29;23.06
51999;BME280;38015;50.924;11.598;2023-04-04T06:15:19;100612.25;;;22.28;23.19
51999;BME280;38015;50.924;11.598;2023-04-04T06:17:49;100614.10;;;22.23;23.21
51999;BME280;38015;50.924;11.598;2023-04-04T06:20:21;100618.44;;;22.30;23.10
51999;BME280;38015;50.924;11.598;2023-04-04T06:22:50;100618.16;;;22.29;23.09
51999;BME280;38015;50.924;11.598;2023-04-04T06:25:21;100619.94;;;22.31;23.09
51999;BME280;38015;50.924;11.598;2023-04-04T06:27:51;100618.89;;;22.28;23.16
51999;BME280;38015;50.924;11.598;2023-04-04T06:30:22;100619.92;;;22.28;23.11
51999;BME280;38015;50.924;11.598;2023-04-04T06:32:52;100621.32;;;22.28;23.10
51999;BME280;38015;50.924;11.598;2023-04-04T06:35:23;100622.09;;;22.27;23.18
51999;BME280;38015;50.924;11.598;2023-04-04T06:37:54;100623.98;;;22.27;23.14
51999;BME280;38015;50.924;11.598;2023-04-04T06:40:24;100623.31;;;22.34;23.01
51999;BME280;38015;50.924;11.598;2023-04-04T06:42:54;100625.66;;;22.33;23.03
51999;BME280;38015;50.924;11.598;2023-04-04T06:45:25;100625.29;;;22.34;23.05
51999;BME280;38015;50.924;11.598;2023-04-04T06:47:55;100625.48;;;22.27;23.16
51999;BME280;38015;50.924;11.598;2023-04-04T06:50:29;100625.33;;;22.23;23.20
51999;BME280;38015;50.924;11.598;2023-04-04T06:52:57;100625.22;;;22.38;22.99
51999;BME280;38015;50.924;11.598;2023-04-04T06:55:27;100625.54;;;22.35;23.08
51999;BME280;38015;50.924;11.598;2023-04-04T06:57:57;100624.50;;;22.38;23.01
51999;BME280;38015;50.924;11.598;2023-04-04T07:00:28;100624.60;;;22.39;23.04
51999;BME280;38015;50.924;11.598;2023-04-04T07:02:59;100624.16;;;22.38;22.95
51999;BME280;38015;50.924;11.598;2023-04-04T07:05:29;100621.55;;;22.41;22.93
51999;BME280;38015;50.924;11.598;2023-04-04T07:07:59;100618.31;;;22.39;22.93
51999;BME280;38015;50.924;11.598;2023-04-04T07:10:30;100623.15;;;22.55;22.72
51999;BME280;38015;50.924;11.598;2023-04-04T07:13:00;100627.15;;;22.43;22.99
51999;BME280;38015;50.924;11.598;2023-04-04T07:15:31;100627.35;;;22.51;22.81
51999;BME280;38015;50.924;11.598;2023-04-04T07:18:02;100626.32;;;22.51;22.88
51999;BME280;38015;50.924;11.598;2023-04-04T07:20:34;100627.95;;;22.39;23.14
51999;BME280;38015;50.924;11.598;2023-04-04T07:23:02;100629.00;;;22.50;22.88
51999;BME280;38015;50.924;11.598;2023-04-04T07:25:33;100630.63;;;22.54;22.97
51999;BME280;38015;50.924;11.598;2023-04-04T07:28:04;100626.24;;;22.45;22.96
51999;BME280;38015;50.924;11.598;2023-04-04T07:30:34;100628.31;;;22.40;23.08
51999;BME280;38015;50.924;11.598;2023-04-04T07:33:07;100627.66;;;22.48;22.96
51999;BME280;38015;50.924;11.598;2023-04-04T07:35:35;100627.49;;;22.45;23.00
51999;BME280;38015;50.924;11.598;2023-04-04T07:38:06;100627.56;;;22.52;22.86
51999;BME280;38015;50.924;11.598;2023-04-04T07:40:36;100626.85;;;22.41;23.09
51999;BME280;38015;50.924;11.598;2023-04-04T07:43:06;100627.43;;;22.54;22.88
51999;BME280;38015;50.924;11.598;2023-04-04T07:45:38;100626.24;;;22.47;22.95
51999;BME280;38015;50.924;11.598;2023-04-04T07:48:07;100623.21;;;22.62;22.78
51999;BME280;38015;50.924;11.598;2023-04-04T07:50:39;100621.10;;;22.59;22.77
51999;BME280;38015;50.924;11.598;2023-04-04T07:53:10;100623.59;;;22.47;22.96
51999;BME280;38015;50.924;11.598;2023-04-04T07:55:39;100622.25;;;22.59;22.85
51999;BME280;38015;50.924;11.598;2023-04-04T07:58:10;100621.65;;;22.72;22.64
51999;BME280;38015;50.924;11.598;2023-04-04T08:00:40;100621.49;;;22.51;22.91
51999;BME280;38015;50.924;11.598;2023-04-04T08:03:11;100622.00;;;22.62;22.80
51999;BME280;38015;50.924;11.598;2023-04-04T08:05:41;100621.60;;;22.66;22.70
51999;BME280;38015;50.924;11.598;2023-04-04T08:08:12;100622.22;;;22.66;22.71
51999;BME280;38015;50.924;11.598;2023-04-04T08:10:43;100619.90;;;22.71;22.62
51999;BME280;38015;50.924;11.598;2023-04-04T08:13:12;100616.04;;;22.76;22.57
51999;BME280;38015;50.924;11.598;2023-04-04T08:15:43;100619.37;;;22.78;22.60
51999;BME280;38015;50.924;11.598;2023-04-04T08:18:13;100618.17;;;22.85;22.58
51999;BME280;38015;50.924;11.598;2023-04-04T08:20:44;100619.65;;;22.77;22.80
51999;BME280;38015;50.924;11.598;2023-04-04T08:23:14;100615.82;;;22.45;22.97
51999;BME280;38015;50.924;11.598;2023-04-04T08:25:45;100614.78;;;22.70;22.67
51999;BME280;38015;50.924;11.598;2023-04-04T08:28:17;100612.79;;;22.73;22.66
51999;BME280;38015;50.924;11.598;2023-04-04T08:30:46;100611.05;;;22.87;22.42
51999;BME280;38015;50.924;11.598;2023-04-04T08:33:16;100610.75;;;22.88;22.56
51999;BME280;38015;50.924;11.598;2023-04-04T08:35:47;100609.22;;;22.91;22.35
51999;BME280;38015;50.924;11.598;2023-04-04T08:38:19;100607.62;;;22.82;22.49
51999;BME280;38015;50.924;11.598;2023-04-04T08:40:48;100606.54;;;22.81;22.44
51999;BME280;38015;50.924;11.598;2023-04-04T08:43:19;100609.66;;;22.78;22.59
51999;BME280;38015;50.924;11.598;2023-04-04T08:45:49;100607.96;;;22.75;22.55
51999;BME280;38015;50.924;11.598;2023-04-04T08:48:20;100607.71;;;22.78;22.59
51999;BME280;38015;50.924;11.598;2023-04-04T08:50:50;100611.29;;;22.69;22.68
51999;BME280;38015;50.924;11.598;2023-04-04T08:53:20;100611.72;;;22.79;22.57
51999;BME280;38015;50.924;11.598;2023-04-04T08:55:52;100613.59;;;22.73;22.47
51999;BME280;38015;50.924;11.598;2023-04-04T08:58:21;100614.01;;;22.72;23.17
51999;BME280;38015;50.924;11.598;2023-04-04T09:00:52;100615.00;;;22.67;23.02
51999;BME280;38015;50.924;11.598;2023-04-04T09:03:24;100616.68;;;22.61;22.57
51999;BME280;38015;50.924;11.598;2023-04-04T09:05:54;100617.99;;;22.68;22.35
51999;BME280;38015;50.924;11.598;2023-04-04T09:08:25;100615.66;;;22.61;22.61
51999;BME280;38015;50.924;11.598;2023-04-04T09:10:54;100614.82;;;22.62;22.81
51999;BME280;38015;50.924;11.598;2023-04-04T09:13:24;100610.86;;;22.61;22.44
51999;BME280;38015;50.924;11.598;2023-04-04T09:15:56;100612.16;;;22.64;22.48
51999;BME280;38015;50.924;11.598;2023-04-04T09:18:25;100612.44;;;22.62;22.35
51999;BME280;38015;50.924;11.598;2023-04-04T09:20:56;100617.09;;;22.67;22.39
51999;BME280;38015;50.924;11.598;2023-04-04T09:23:28;100613.48;;;22.72;22.32
51999;BME280;38015;50.924;11.598;2023-04-04T09:25:57;100615.87;;;22.56;22.40
51999;BME280;38015;50.924;11.598;2023-04-04T09:28:28;100620.19;;;22.57;22.39
51999;BME280;38015;50.924;11.598;2023-04-04T09:30:59;100615.99;;;22.61;22.27
51999;BME280;38015;50.924;11.598;2023-04-04T09:33:30;100616.45;;;22.51;22.58
51999;BME280;38015;50.924;11.598;2023-04-04T09:36:02;100619.61;;;22.65;22.10
51999;BME280;38015;50.924;11.598;2023-04-04T09:38:31;100621.09;;;22.55;22.30
51999;BME280;38015;50.924;11.598;2023-04-04T09:41:00;100622.54;;;22.61;21.92
51999;BME280;38015;50.924;11.598;2023-04-04T09:43:31;100624.17;;;22.58;22.54
51999;BME280;38015;50.924;11.598;2023-04-04T09:46:02;100621.74;;;22.56;22.13
51999;BME280;38015;50.924;11.598;2023-04-04T09:48:32;100622.57;;;22.54;22.25
51999;BME280;38015;50.924;11.598;2023-04-04T09:51:04;100620.40;;;22.57;22.23
51999;BME280;38015;50.924;11.598;2023-04-04T09:53:34;100626.19;;;22.64;22.42
51999;BME280;38015;50.924;11.598;2023-04-04T09:56:03;100625.50;;;22.68;22.14
51999;BME280;38015;50.924;11.598;2023-04-04T09:58:33;100623.85;;;22.71;22.09
51999;BME280;38015;50.924;11.598;2023-04-04T10:01:08;100621.57;;;22.71;21.91
51999;BME280;38015;50.924;11.598;2023-04-04T10:03:35;100624.27;;;22.74;21.73
51999;BME280;38015;50.924;11.598;2023-04-04T10:06:06;100628.98;;;22.70;22.56
51999;BME280;38015;50.924;11.598;2023-04-04T10:08:38;100623.76;;;22.61;21.98
51999;BME280;38015;50.924;11.598;2023-04-04T10:11:06;100619.10;;;22.66;22.36
51999;BME280;38015;50.924;11.598;2023-04-04T10:13:37;100616.68;;;22.72;21.97
51999;BME280;38015;50.924;11.598;2023-04-04T10:16:07;100615.53;;;22.68;21.70
51999;BME280;38015;50.924;11.598;2023-04-04T10:18:39;100615.45;;;22.68;21.84
51999;BME280;38015;50.924;11.598;2023-04-04T10:21:08;100619.75;;;22.70;22.02
51999;BME280;38015;50.924;11.598;2023-04-04T10:23:40;100615.66;;;22.68;22.24
51999;BME280;38015;50.924;11.598;2023-04-04T10:26:09;100608.51;;;22.70;21.94
51999;BME280;38015;50.924;11.598;2023-04-04T10:28:40;100603.83;;;22.75;21.53
51999;BME280;38015;50.924;11.598;2023-04-04T10:31:15;100602.35;;;22.71;21.63
51999;BME280;38015;50.924;11.598;2023-04-04T10:33:49;100602.83;;;22.72;21.97
51999;BME280;38015;50.924;11.598;2023-04-04T10:36:13;100601.59;;;22.64;21.61
51999;BME280;38015;50.924;11.598;2023-04-04T10:38:43;100599.19;;;22.72;21.66
51999;BME280;38015;50.924;11.598;2023-04-04T10:41:13;100595.28;;;22.62;21.66
51999;BME280;38015;50.924;11.598;2023-04-04T10:43:44;100593.12;;;22.71;21.75
51999;BME280;38015;50.924;11.598;2023-04-04T10:46:17;100589.43;;;22.72;21.53
51999;BME280;38015;50.924;11.598;2023-04-04T10:48:43;100591.35;;;22.73;21.74
51999;BME280;38015;50.924;11.598;2023-04-04T10:51:14;100587.34;;;22.73;21.64
51999;BME280;38015;50.924;11.598;2023-04-04T10:53:46;100584.53;;;22.80;21.48
51999;BME280;38015;50.924;11.598;2023-04-04T10:56:15;100581.07;;;22.81;21.73
51999;BME280;38015;50.924;11.598;2023-04-04T10:58:48;100578.83;;;22.77;21.60
51999;BME280;38015;50.924;11.598;2023-04-04T11:01:15;100575.62;;;22.75;21.61
51999;BME280;38015;50.924;11.598;2023-04-04T11:06:18;100572.76;;;22.82;21.85
51999;BME280;38015;50.924;11.598;2023-04-04T11:08:53;100572.24;;;22.76;21.73
51999;BME280;38015;50.924;11.598;2023-04-04T11:11:18;100571.13;;;22.74;21.86
51999;BME280;38015;50.924;11.598;2023-04-04T11:16:18;100576.81;;;22.72;22.09
51999;BME280;38015;50.924;11.598;2023-04-04T11:18:49;100576.33;;;22.70;22.18
51999;BME280;38015;50.924;11.598;2023-04-04T11:21:21;100575.30;;;22.81;21.92
51999;BME280;38015;50.924;11.598;2023-04-04T11:28:53;100575.55;;;22.89;22.08
51999;BME280;38015;50.924;11.598;2023-04-04T11:31:23;100575.63;;;22.87;21.84
51999;BME280;38015;50.924;11.598;2023-04-04T11:33:54;100580.73;;;22.86;21.80
51999;BME280;38015;50.924;11.598;2023-04-04T11:38:56;100575.20;;;22.78;21.92
51999;BME280;38015;50.924;11.598;2023-04-04T11:43:54;100564.19;;;22.90;21.82
51999;BME280;38015;50.924;11.598;2023-04-04T11:46:28;100563.81;;;22.92;21.82
51999;BME280;38015;50.924;11.598;2023-04-04T11:48:57;100558.28;;;22.85;21.85
51999;BME280;38015;50.924;11.598;2023-04-04T11:51:25;100556.29;;;22.82;21.82
51999;BME280;38015;50.924;11.598;2023-04-04T11:53:56;100550.04;;;22.86;22.06
51999;BME280;38015;50.924;11.598;2023-04-04T11:56:26;100546.02;;;22.89;21.75
51999;BME280;38015;50.924;11.598;2023-04-04T11:58:57;100544.83;;;22.93;21.75
51999;BME280;38015;50.924;11.598;2023-04-04T12:01:27;100543.89;;;22.78;21.94
51999;BME280;38015;50.924;11.598;2023-04-04T12:03:58;100541.83;;;22.86;22.00
51999;BME280;38015;50.924;11.598;2023-04-04T12:06:29;100537.28;;;22.86;21.87
51999;BME280;38015;50.924;11.598;2023-04-04T12:09:00;100537.96;;;22.86;21.85
51999;BME280;38015;50.924;11.598;2023-04-04T12:11:30;100534.61;;;22.83;21.87
51999;BME280;38015;50.924;11.598;2023-04-04T12:14:00;100532.75;;;22.88;21.84
51999;BME280;38015;50.924;11.598;2023-04-04T12:16:30;100528.58;;;22.93;21.79
51999;BME280;38015;50.924;11.598;2023-04-04T12:19:01;100531.11;;;22.88;22.03
51999;BME280;38015;50.924;11.598;2023-04-04T12:21:31;100528.64;;;22.91;21.85
51999;BME280;38015;50.924;11.598;2023-04-04T12:24:02;100524.82;;;22.91;21.79
51999;BME280;38015;50.924;11.598;2023-04-04T12:26:33;100524.72;;;22.86;21.99
51999;BME280;38015;50.924;11.598;2023-04-04T12:29:03;100521.00;;;22.97;21.69
51999;BME280;38015;50.924;11.598;2023-04-04T12:31:33;100519.50;;;22.87;21.90
51999;BME280;38015;50.924;11.598;2023-04-04T12:34:04;100524.09;;;22.88;22.08
51999;BME280;38015;50.924;11.598;2023-04-04T12:36:36;100524.88;;;22.79;22.31
51999;BME280;38015;50.924;11.598;2023-04-04T12:39:06;100517.85;;;22.93;21.96
51999;BME280;38015;50.924;11.598;2023-04-04T12:41:35;100515.36;;;22.97;21.69
51999;BME280;38015;50.924;11.598;2023-04-04T12:44:06;100514.99;;;22.86;22.14
51999;BME280;38015;50.924;11.598;2023-04-04T12:46:36;100511.42;;;22.89;21.91
51999;BME280;38015;50.924;11.598;2023-04-04T12:49:09;100513.35;;;22.93;21.79
51999;BME280;38015;50.924;11.598;2023-04-04T12:51:37;100509.35;;;22.99;21.81
51999;BME280;38015;50.924;11.598;2023-04-04T12:56:39;100506.61;;;22.79;22.40
51999;BME280;38015;50.924;11.598;2023-04-04T12:59:08;100505.44;;;22.94;22.02
51999;BME280;38015;50.924;11.598;2023-04-04T13:01:39;100501.24;;;22.91;22.05
51999;BME280;38015;50.924;11.598;2023-04-04T13:04:10;100498.67;;;22.86;22.09
51999;BME280;38015;50.924;11.598;2023-04-04T13:06:44;100490.81;;;23.05;21.68
51999;BME280;38015;50.924;11.598;2023-04-04T13:09:16;100482.68;;;23.04;21.67
51999;BME280;38015;50.924;11.598;2023-04-04T13:14:11;100475.49;;;23.14;21.60
51999;BME280;38015;50.924;11.598;2023-04-04T13:16:42;100471.23;;;23.09;21.73